createdAt,value
2023-03-03T00:01:54.484Z,101957.00
2023-03-03T00:04:21.321Z,101967.75
2023-03-03T00:06:48.147Z,101963.22
2023-03-03T00:09:15.087Z,101955.47
2023-03-03T00:11:41.883Z,101958.91
2023-03-03T00:14:41.029Z,101965.16
2023-03-03T00:17:23.433Z,101957.47
2023-03-03T00:19:51.092Z,101963.66
2023-03-03T00:22:35.892Z,101960.97
2023-03-03T00:25:34.175Z,101958.38
2023-03-03T00:28:33.035Z,101960.16
2023-03-03T00:31:03.558Z,101956.72
2023-03-03T00:33:43.446Z,101957.47
2023-03-03T00:36:19.443Z,101957.91
2023-03-03T00:38:47.635Z,101959.81
2023-03-03T00:41:25.896Z,101961.56
2023-03-03T00:43:53.808Z,101958.00
2023-03-03T00:46:24.366Z,101957.91
2023-03-03T00:48:51.866Z,101954.25
2023-03-03T00:51:33.463Z,101952.53
2023-03-03T00:54:00.315Z,101955.31
2023-03-03T00:56:28.034Z,101956.09
2023-03-03T00:58:55.019Z,101954.44
2023-03-03T01:01:22.134Z,101958.78
2023-03-03T01:03:49.635Z,101963.25
2023-03-03T01:06:17.151Z,101961.66
2023-03-03T01:08:44.010Z,101970.47
2023-03-03T01:11:16.938Z,101966.38
2023-03-03T01:13:48.484Z,101976.91
2023-03-03T01:16:15.385Z,101979.38
2023-03-03T01:18:42.267Z,101981.13
2023-03-03T01:21:11.187Z,101969.53
2023-03-03T01:23:38.366Z,101974.97
2023-03-03T01:26:05.778Z,101980.34
2023-03-03T01:31:04.220Z,101979.59
2023-03-03T01:33:31.962Z,101983.78
2023-03-03T01:35:59.322Z,101984.22
2023-03-03T01:38:26.614Z,101983.22
2023-03-03T01:40:56.882Z,101986.91
2023-03-03T01:43:26.784Z,101981.53
2023-03-03T01:45:54.047Z,101972.50
2023-03-03T01:48:35.168Z,101976.03
2023-03-03T01:51:06.656Z,101975.28
2023-03-03T01:53:44.545Z,101977.00
2023-03-03T01:56:11.458Z,101980.63
2023-03-03T01:58:47.436Z,101980.72
2023-03-03T02:01:20.034Z,101975.28
2023-03-03T02:03:47.133Z,101985.16
2023-03-03T02:06:17.797Z,101981.53
2023-03-03T02:09:00.422Z,101976.16
2023-03-03T02:11:30.474Z,101977.19
2023-03-03T02:13:57.437Z,101977.28
2023-03-03T02:16:24.990Z,101972.91
2023-03-03T02:18:51.980Z,101971.91
2023-03-03T02:21:24.688Z,101969.44
2023-03-03T02:24:13.458Z,101969.38
2023-03-03T02:26:42.320Z,101974.81
2023-03-03T02:29:10.935Z,101971.16
2023-03-03T02:31:38.783Z,101977.50
2023-03-03T02:34:06.781Z,101971.38
2023-03-03T02:36:39.803Z,101969.75
2023-03-03T02:39:12.620Z,101964.28
2023-03-03T02:41:54.138Z,101969.81
2023-03-03T02:44:24.569Z,101966.19
2023-03-03T02:46:53.627Z,101964.28
2023-03-03T02:49:27.567Z,101969.66
2023-03-03T02:51:55.624Z,101962.75
2023-03-03T02:54:25.295Z,101972.50
2023-03-03T02:56:52.565Z,101970.72
2023-03-03T02:59:19.930Z,101973.41
2023-03-03T03:01:47.327Z,101969.75
2023-03-03T03:04:27.007Z,101971.56
2023-03-03T03:06:55.231Z,101963.50
2023-03-03T03:09:23.903Z,101969.66
2023-03-03T03:11:51.124Z,101968.88
2023-03-03T03:14:18.057Z,101969.81
2023-03-03T03:16:44.971Z,101967.06
2023-03-03T03:19:12.158Z,101973.19
2023-03-03T03:21:39.132Z,101973.31
2023-03-03T03:24:06.494Z,101974.25
2023-03-03T03:26:33.304Z,101974.25
2023-03-03T03:29:00.292Z,101976.94
2023-03-03T03:31:27.836Z,101962.75
2023-03-03T03:33:54.648Z,101971.56
2023-03-03T03:36:21.938Z,101975.19
2023-03-03T03:38:49.312Z,101977.25
2023-03-03T03:41:16.096Z,101972.91
2023-03-03T03:43:42.953Z,101973.91
2023-03-03T03:46:09.893Z,101971.41
2023-03-03T03:48:36.949Z,101974.28
2023-03-03T03:51:04.606Z,101975.25
2023-03-03T03:53:31.449Z,101976.19
2023-03-03T03:55:58.455Z,101977.25
2023-03-03T03:58:25.437Z,101974.00
2023-03-03T04:00:52.274Z,101975.06
2023-03-03T04:03:20.048Z,101966.94
2023-03-03T04:05:46.919Z,101975.06
2023-03-03T04:08:13.992Z,101970.47
2023-03-03T04:10:41.252Z,101976.31
2023-03-03T04:13:08.371Z,101971.63
2023-03-03T04:15:35.336Z,101966.44
2023-03-03T04:18:02.432Z,101971.91
2023-03-03T04:20:29.307Z,101975.47
2023-03-03T04:22:59.369Z,101966.84
2023-03-03T04:25:26.178Z,101978.50
2023-03-03T04:27:54.491Z,101981.19
2023-03-03T04:30:21.482Z,101976.41
2023-03-03T04:32:48.344Z,101980.81
2023-03-03T04:35:15.128Z,101976.53
2023-03-03T04:37:41.902Z,101976.41
2023-03-03T04:40:10.574Z,101974.53
2023-03-03T04:42:37.742Z,101977.56
2023-03-03T04:45:06.362Z,101972.28
2023-03-03T04:47:33.484Z,101979.31
2023-03-03T04:50:01.301Z,101985.81
2023-03-03T04:52:28.477Z,101977.94
2023-03-03T04:54:55.515Z,101976.81
2023-03-03T04:57:22.353Z,101978.94
2023-03-03T04:59:49.207Z,101982.16
2023-03-03T05:02:16.313Z,101982.16
2023-03-03T05:04:43.827Z,101978.94
2023-03-03T05:07:10.651Z,101980.47
2023-03-03T05:09:37.925Z,101979.97
2023-03-03T05:12:04.967Z,101982.72
2023-03-03T05:14:32.302Z,101980.72
2023-03-03T05:16:59.235Z,101981.69
2023-03-03T05:19:26.620Z,101982.72
2023-03-03T05:21:53.743Z,101985.31
2023-03-03T05:24:20.589Z,101988.97
2023-03-03T05:26:47.775Z,101984.47
2023-03-03T05:29:15.094Z,101996.25
2023-03-03T05:31:43.997Z,101982.72
2023-03-03T05:34:12.359Z,101987.63
2023-03-03T05:36:39.327Z,101983.88
2023-03-03T05:39:06.317Z,101990.09
2023-03-03T05:41:36.927Z,101991.16
2023-03-03T05:44:04.646Z,101993.06
2023-03-03T05:46:31.709Z,101996.81
2023-03-03T05:48:58.636Z,101990.41
2023-03-03T05:51:25.774Z,101993.81
2023-03-03T05:53:54.209Z,101995.00
2023-03-03T05:56:22.891Z,101989.25
2023-03-03T05:58:49.998Z,101991.63
2023-03-03T06:01:16.850Z,101998.06
2023-03-03T06:03:43.621Z,101993.47
2023-03-03T06:06:10.728Z,101998.06
2023-03-03T06:08:37.485Z,101993.25
2023-03-03T06:11:04.561Z,101995.25
2023-03-03T06:13:31.413Z,101995.16
2023-03-03T06:15:58.198Z,102005.50
2023-03-03T06:18:25.015Z,102004.66
2023-03-03T06:20:54.185Z,102006.28
2023-03-03T06:23:21.803Z,102003.59
2023-03-03T06:25:48.778Z,102002.84
2023-03-03T06:28:15.837Z,102006.66
2023-03-03T06:30:42.826Z,102011.44
2023-03-03T06:33:09.646Z,102009.44
2023-03-03T06:35:37.182Z,102018.31
2023-03-03T06:38:04.132Z,102018.31
2023-03-03T06:40:31.029Z,102013.94
2023-03-03T06:42:58.235Z,102011.03
2023-03-03T06:45:25.060Z,102009.34
2023-03-03T06:47:51.885Z,102022.66
2023-03-03T06:50:21.508Z,102018.31
2023-03-03T06:52:48.874Z,102021.97
2023-03-03T06:55:24.664Z,102021.75
2023-03-03T06:57:51.708Z,102025.00
2023-03-03T07:00:25.079Z,102029.59
2023-03-03T07:03:08.785Z,102031.50
2023-03-03T07:05:35.702Z,102040.59
2023-03-03T07:08:02.591Z,102039.75
2023-03-03T07:10:31.530Z,102044.81
2023-03-03T07:13:19.809Z,102045.78
2023-03-03T07:15:49.422Z,102047.59
2023-03-03T07:18:58.053Z,102052.00
2023-03-03T07:21:37.155Z,102046.81
2023-03-03T07:24:31.025Z,102047.41
2023-03-03T07:27:13.205Z,102050.25
2023-03-03T07:29:42.715Z,102043.75
2023-03-03T07:32:43.593Z,102053.81
2023-03-03T07:35:41.502Z,102054.47
2023-03-03T07:38:30.497Z,102053.44
2023-03-03T07:41:01.346Z,102059.59
2023-03-03T07:43:37.239Z,102054.31
2023-03-03T07:46:25.289Z,102062.53
2023-03-03T07:48:52.941Z,102064.19
2023-03-03T07:51:29.270Z,102064.94
2023-03-03T07:54:31.153Z,102065.03
2023-03-03T07:57:27.447Z,102066.16
2023-03-03T08:00:02.532Z,102074.03
2023-03-03T08:02:29.262Z,102079.19
2023-03-03T08:04:56.385Z,102079.03
2023-03-03T08:07:23.813Z,102081.78
2023-03-03T08:09:57.889Z,102090.00
2023-03-03T08:12:38.973Z,102083.88
2023-03-03T08:15:19.503Z,102091.22
2023-03-03T08:17:48.314Z,102086.63
2023-03-03T08:20:43.673Z,102091.84
2023-03-03T08:23:11.964Z,102090.13
2023-03-03T08:25:39.821Z,102088.97
2023-03-03T08:28:06.686Z,102083.78
2023-03-03T08:30:34.212Z,102090.97
2023-03-03T08:33:01.580Z,102096.81
2023-03-03T08:35:28.437Z,102096.06
2023-03-03T08:37:55.476Z,102094.91
2023-03-03T08:40:22.406Z,102103.94
2023-03-03T08:42:49.415Z,102104.09
2023-03-03T08:45:16.696Z,102109.28
2023-03-03T08:47:45.140Z,102107.38
2023-03-03T08:50:13.355Z,102105.28
2023-03-03T08:52:40.558Z,102112.44
2023-03-03T08:55:08.867Z,102108.75
2023-03-03T08:57:36.378Z,102107.09
2023-03-03T09:00:03.482Z,102111.59
2023-03-03T09:02:30.242Z,102106.16
2023-03-03T09:04:57.146Z,102117.66
2023-03-03T09:07:24.032Z,102114.66
2023-03-03T09:09:50.844Z,102117.34
2023-03-03T09:12:27.838Z,102120.31
2023-03-03T09:14:59.895Z,102112.78
2023-03-03T09:17:35.457Z,102120.91
2023-03-03T09:20:22.280Z,102118.94
2023-03-03T09:22:50.986Z,102115.28
2023-03-03T09:25:37.238Z,102117.00
2023-03-03T09:28:04.316Z,102125.28
2023-03-03T09:30:39.745Z,102130.66
2023-03-03T09:33:44.258Z,102118.00
2023-03-03T09:36:30.937Z,102123.75
2023-03-03T09:38:58.934Z,102117.72
2023-03-03T09:42:05.442Z,102120.69
2023-03-03T09:45:08.876Z,102124.13
2023-03-03T09:48:11.892Z,102123.38
2023-03-03T09:50:53.293Z,102115.72
2023-03-03T09:53:34.205Z,102114.00
2023-03-03T09:56:34.332Z,102119.44
2023-03-03T09:59:19.790Z,102118.97
2023-03-03T10:02:36.116Z,102116.91
2023-03-03T10:05:14.704Z,102121.19
2023-03-03T10:07:55.946Z,102130.69
2023-03-03T10:10:46.142Z,102133.19
2023-03-03T10:13:52.496Z,102127.03
2023-03-03T10:16:46.883Z,102133.97
2023-03-03T10:19:39.446Z,102137.50
2023-03-03T10:22:37.718Z,102134.72
2023-03-03T10:25:28.955Z,102140.19
2023-03-03T10:28:36.453Z,102145.09
2023-03-03T10:31:44.695Z,102146.03
2023-03-03T10:34:54.604Z,102144.09
2023-03-03T10:37:51.476Z,102139.88
2023-03-03T10:40:35.538Z,102143.56
2023-03-03T10:43:09.437Z,102152.06
2023-03-03T10:46:12.911Z,102141.25
2023-03-03T10:49:03.851Z,102141.06
2023-03-03T10:51:39.315Z,102150.66
2023-03-03T10:55:01.002Z,102149.50
2023-03-03T10:57:36.898Z,102148.16
2023-03-03T11:00:28.963Z,102145.09
2023-03-03T11:03:08.018Z,102152.56
2023-03-03T11:06:12.051Z,102155.91
2023-03-03T11:08:45.104Z,102156.41
2023-03-03T11:11:46.128Z,102150.28
2023-03-03T11:14:27.968Z,102159.00
2023-03-03T11:17:14.900Z,102161.38
2023-03-03T11:20:20.465Z,102171.28
2023-03-03T11:23:00.097Z,102170.69
2023-03-03T11:25:43.631Z,102167.91
2023-03-03T11:28:30.646Z,102169.44
2023-03-03T11:31:00.372Z,102176.75
2023-03-03T11:34:39.037Z,102175.84
2023-03-03T11:37:35.516Z,102173.28
2023-03-03T11:40:20.444Z,102174.81
2023-03-03T11:43:04.363Z,102172.91
2023-03-03T11:45:55.336Z,102179.78
2023-03-03T11:48:54.156Z,102169.72
2023-03-03T11:51:38.305Z,102170.94
2023-03-03T11:54:18.327Z,102177.97
2023-03-03T11:56:49.029Z,102174.09
2023-03-03T11:59:32.042Z,102170.19
2023-03-03T12:02:44.120Z,102176.88
2023-03-03T12:05:26.154Z,102181.97
2023-03-03T12:08:38.993Z,102171.91
2023-03-03T12:11:32.349Z,102171.31
2023-03-03T12:14:28.534Z,102178.63
2023-03-03T12:17:05.272Z,102181.09
2023-03-03T12:19:50.278Z,102172.44
2023-03-03T12:22:45.919Z,102169.66
2023-03-03T12:25:42.751Z,102166.03
2023-03-03T12:28:15.552Z,102171.59
2023-03-03T12:31:35.560Z,102162.94
2023-03-03T12:34:21.908Z,102157.06
2023-03-03T12:37:06.938Z,102164.75
2023-03-03T12:40:04.043Z,102160.16
2023-03-03T12:43:11.051Z,102155.94
2023-03-03T12:46:04.898Z,102148.22
2023-03-03T12:48:41.232Z,102143.44
2023-03-03T12:51:35.445Z,102152.09
2023-03-03T12:54:42.589Z,102151.84
2023-03-03T12:57:47.082Z,102146.47
2023-03-03T13:00:24.578Z,102150.91
2023-03-03T13:03:53.362Z,102154.00
2023-03-03T13:06:31.560Z,102142.75
2023-03-03T13:09:03.129Z,102146.19
2023-03-03T13:12:07.196Z,102148.47
2023-03-03T13:14:52.222Z,102137.28
2023-03-03T13:17:35.193Z,102140.91
2023-03-03T13:20:17.774Z,102141.69
2023-03-03T13:23:18.588Z,102138.03
2023-03-03T13:26:48.679Z,102132.84
2023-03-03T13:29:30.984Z,102134.16
2023-03-03T13:32:05.182Z,102125.59
2023-03-03T13:35:02.321Z,102123.47
2023-03-03T13:37:45.706Z,102124.63
2023-03-03T13:40:32.448Z,102120.00
2023-03-03T13:43:17.676Z,102124.53
2023-03-03T13:46:06.151Z,102120.19
2023-03-03T13:48:41.934Z,102115.50
2023-03-03T13:51:34.710Z,102124.31
2023-03-03T13:54:31.075Z,102113.56
2023-03-03T13:57:34.400Z,102118.09
2023-03-03T14:00:41.927Z,102118.00
2023-03-03T14:03:41.413Z,102126.91
2023-03-03T14:06:30.012Z,102115.41
2023-03-03T14:09:22.489Z,102119.59
2023-03-03T14:12:11.839Z,102117.03
2023-03-03T14:14:52.240Z,102112.72
2023-03-03T14:17:40.352Z,102112.50
2023-03-03T14:20:30.865Z,102114.44
2023-03-03T14:23:33.925Z,102098.31
2023-03-03T14:26:10.828Z,102108.47
2023-03-03T14:28:50.003Z,102103.94
2023-03-03T14:31:43.507Z,102101.16
2023-03-03T14:34:41.248Z,102099.88
2023-03-03T14:37:49.177Z,102101.50
2023-03-03T14:40:32.613Z,102098.59
2023-03-03T14:43:02.841Z,102096.66
2023-03-03T14:45:41.575Z,102096.00
2023-03-03T14:48:22.671Z,102086.09
2023-03-03T14:50:52.693Z,102085.03
2023-03-03T14:53:19.780Z,102089.34
2023-03-03T14:55:52.865Z,102083.97
2023-03-03T14:58:40.716Z,102087.63
2023-03-03T15:01:22.729Z,102078.81
2023-03-03T15:04:01.627Z,102078.16
2023-03-03T15:06:35.867Z,102075.34
2023-03-03T15:09:30.053Z,102076.22
2023-03-03T15:12:00.065Z,102078.69
2023-03-03T15:14:44.861Z,102075.16
2023-03-03T15:17:23.815Z,102069.78
2023-03-03T15:20:13.626Z,102076.75
2023-03-03T15:23:05.406Z,102067.84
2023-03-03T15:25:58.802Z,102064.16
2023-03-03T15:28:46.932Z,102071.28
2023-03-03T15:31:30.423Z,102070.53
2023-03-03T15:34:25.097Z,102063.13
2023-03-03T15:37:32.657Z,102053.13
2023-03-03T15:40:21.327Z,102065.19
2023-03-03T15:43:22.289Z,102057.97
2023-03-03T15:46:04.916Z,102050.56
2023-03-03T15:49:07.268Z,102057.44
2023-03-03T15:52:03.237Z,102050.13
2023-03-03T15:54:43.941Z,102052.91
2023-03-03T15:57:24.191Z,102048.94
2023-03-03T16:00:23.105Z,102047.88
2023-03-03T16:03:13.951Z,102049.59
2023-03-03T16:05:55.970Z,102044.75
2023-03-03T16:08:36.180Z,102044.50
2023-03-03T16:11:04.681Z,102044.31
2023-03-03T16:14:18.072Z,102050.53
2023-03-03T16:16:59.730Z,102044.00
2023-03-03T16:19:58.739Z,102049.38
2023-03-03T16:22:56.255Z,102048.59
2023-03-03T16:25:50.211Z,102047.75
2023-03-03T16:28:40.404Z,102046.03
2023-03-03T16:31:23.392Z,102053.38
2023-03-03T16:34:02.037Z,102048.75
2023-03-03T16:36:58.391Z,102048.94
2023-03-03T16:39:43.835Z,102049.78
2023-03-03T16:42:21.577Z,102042.59
2023-03-03T16:45:07.755Z,102040.22
2023-03-03T16:47:51.288Z,102053.38
2023-03-03T16:50:35.636Z,102057.22
2023-03-03T16:53:27.846Z,102054.53
2023-03-03T16:56:14.784Z,102050.22
2023-03-03T16:59:16.844Z,102060.13
2023-03-03T17:01:52.981Z,102047.44
2023-03-03T17:04:41.157Z,102053.25
2023-03-03T17:07:55.220Z,102049.59
2023-03-03T17:10:36.394Z,102047.88
2023-03-03T17:13:27.853Z,102047.31
2023-03-03T17:16:51.086Z,102049.78
2023-03-03T17:19:49.451Z,102052.81
2023-03-03T17:23:01.790Z,102053.75
2023-03-03T17:25:56.150Z,102057.78
2023-03-03T17:28:34.525Z,102057.13
2023-03-03T17:31:20.491Z,102059.66
2023-03-03T17:33:59.303Z,102065.28
2023-03-03T17:36:32.232Z,102067.13
2023-03-03T17:39:36.534Z,102070.88
2023-03-03T17:42:23.080Z,102062.03
2023-03-03T17:45:12.226Z,102069.44
2023-03-03T17:47:57.308Z,102074.41
2023-03-03T17:50:42.888Z,102074.50
2023-03-03T17:53:15.874Z,102082.47
2023-03-03T17:55:55.825Z,102074.69
2023-03-03T17:59:08.139Z,102082.75
2023-03-03T18:02:18.634Z,102076.81
2023-03-03T18:05:25.961Z,102090.84
2023-03-03T18:08:29.807Z,102085.03
2023-03-03T18:11:12.809Z,102091.34
2023-03-03T18:14:26.742Z,102099.06
2023-03-03T18:17:31.203Z,102105.41
2023-03-03T18:20:28.876Z,102098.09
2023-03-03T18:22:55.942Z,102106.28
2023-03-03T18:25:55.878Z,102111.84
2023-03-03T18:28:36.877Z,102108.19
2023-03-03T18:31:05.121Z,102106.75
2023-03-03T18:33:34.951Z,102106.75
2023-03-03T18:36:28.073Z,102106.22
2023-03-03T18:39:01.624Z,102112.13
2023-03-03T18:41:31.794Z,102109.25
2023-03-03T18:44:25.111Z,102113.97
2023-03-03T18:46:53.831Z,102113.69
2023-03-03T18:50:05.468Z,102120.00
2023-03-03T18:52:35.008Z,102119.25
2023-03-03T18:55:11.056Z,102118.69
2023-03-03T18:57:39.005Z,102121.19
2023-03-03T19:00:28.814Z,102127.50
2023-03-03T19:02:59.513Z,102130.00
2023-03-03T19:05:37.193Z,102121.94
2023-03-03T19:08:45.428Z,102130.31
2023-03-03T19:11:44.869Z,102132.22
2023-03-03T19:14:17.835Z,102138.06
2023-03-03T19:16:45.709Z,102126.56
2023-03-03T19:19:23.636Z,102123.88
2023-03-03T19:22:19.881Z,102126.00
2023-03-03T19:25:08.896Z,102122.44
2023-03-03T19:28:14.756Z,102130.31
2023-03-03T19:30:56.267Z,102126.00
2023-03-03T19:33:57.484Z,102125.91
2023-03-03T19:36:48.578Z,102128.91
2023-03-03T19:39:48.099Z,102126.00
2023-03-03T19:42:47.586Z,102133.28
2023-03-03T19:45:32.966Z,102132.34
2023-03-03T19:48:16.715Z,102140.59
2023-03-03T19:51:06.551Z,102135.22
2023-03-03T19:54:11.772Z,102135.97
2023-03-03T19:56:48.744Z,102134.16
2023-03-03T19:59:32.046Z,102138.66
2023-03-03T20:02:14.000Z,102135.97
2023-03-03T20:05:01.975Z,102143.84
2023-03-03T20:08:10.543Z,102138.25
2023-03-03T20:10:50.951Z,102140.00
2023-03-03T20:13:51.903Z,102136.56
2023-03-03T20:16:37.898Z,102139.25
2023-03-03T20:19:35.757Z,102149.00
2023-03-03T20:22:36.398Z,102140.50
2023-03-03T20:25:24.594Z,102147.41
2023-03-03T20:28:42.005Z,102149.00
2023-03-03T20:31:46.327Z,102146.44
2023-03-03T20:34:13.262Z,102149.00
2023-03-03T20:37:05.908Z,102160.75
2023-03-03T20:39:57.639Z,102152.69
2023-03-03T20:42:56.639Z,102161.50
2023-03-03T20:46:00.783Z,102165.63
2023-03-03T20:48:34.214Z,102178.38
2023-03-03T20:51:08.118Z,102172.06
2023-03-03T20:53:49.549Z,102172.16
2023-03-03T20:56:51.786Z,102170.22
2023-03-03T20:59:44.635Z,102170.41
2023-03-03T21:02:39.153Z,102173.78
2023-03-03T21:05:22.616Z,102183.00
2023-03-03T21:08:06.622Z,102181.47
2023-03-03T21:10:40.335Z,102182.16
2023-03-03T21:13:33.956Z,102184.19
2023-03-03T21:16:09.972Z,102194.84
2023-03-03T21:18:40.362Z,102189.56
2023-03-03T21:21:11.957Z,102183.41
2023-03-03T21:23:42.346Z,102193.09
2023-03-03T21:26:11.540Z,102187.03
2023-03-03T21:28:39.025Z,102190.72
2023-03-03T21:31:17.350Z,102191.97
2023-03-03T21:33:56.030Z,102191.09
2023-03-03T21:36:34.817Z,102189.16
2023-03-03T21:39:04.364Z,102189.16
2023-03-03T21:41:57.352Z,102187.28
2023-03-03T21:44:37.300Z,102190.72
2023-03-03T21:47:07.072Z,102186.97
2023-03-03T21:49:34.035Z,102197.94
2023-03-03T21:52:01.821Z,102201.56
2023-03-03T21:54:29.518Z,102198.88
2023-03-03T21:56:56.391Z,102204.34
2023-03-03T21:59:23.653Z,102208.84
2023-03-03T22:01:50.714Z,102211.47
2023-03-03T22:04:18.045Z,102205.22
2023-03-03T22:06:45.658Z,102202.72
2023-03-03T22:09:12.849Z,102198.28
2023-03-03T22:11:40.171Z,102205.41
2023-03-03T22:14:07.633Z,102205.41
2023-03-03T22:16:35.359Z,102203.88
2023-03-03T22:19:03.651Z,102211.72
2023-03-03T22:21:31.673Z,102207.34
2023-03-03T22:23:59.195Z,102208.00
2023-03-03T22:26:26.039Z,102200.72
2023-03-03T22:28:53.319Z,102206.84
2023-03-03T22:31:20.809Z,102205.00
2023-03-03T22:33:49.460Z,102207.59
2023-03-03T22:36:16.991Z,102203.84
2023-03-03T22:38:43.970Z,102203.66
2023-03-03T22:41:11.350Z,102198.38
2023-03-03T22:43:38.739Z,102202.72
2023-03-03T22:46:06.092Z,102198.09
2023-03-03T22:48:33.119Z,102195.50
2023-03-03T22:51:00.181Z,102196.38
2023-03-03T22:53:27.321Z,102198.09
2023-03-03T22:55:54.650Z,102205.28
2023-03-03T22:58:21.950Z,102200.88
2023-03-03T23:00:48.899Z,102199.72
2023-03-03T23:03:16.735Z,102197.13
2023-03-03T23:05:44.629Z,102200.66
2023-03-03T23:08:15.582Z,102195.41
2023-03-03T23:10:42.675Z,102195.28
2023-03-03T23:13:09.765Z,102205.19
2023-03-03T23:15:37.242Z,102200.66
2023-03-03T23:18:04.192Z,102195.41
2023-03-03T23:20:32.159Z,102194.53
2023-03-03T23:22:59.451Z,102199.91
2023-03-03T23:25:26.964Z,102206.03
2023-03-03T23:27:53.942Z,102198.19
2023-03-03T23:30:22.213Z,102207.13
2023-03-03T23:32:50.428Z,102206.94
2023-03-03T23:35:17.765Z,102207.97
2023-03-03T23:37:45.344Z,102208.72
2023-03-03T23:40:14.845Z,102211.41
2023-03-03T23:42:41.695Z,102210.66
2023-03-03T23:45:10.340Z,102207.03
2023-03-03T23:47:37.423Z,102220.38
2023-03-03T23:50:04.872Z,102214.31
2023-03-03T23:52:31.965Z,102217.69
2023-03-03T23:54:59.014Z,102217.00
2023-03-03T23:57:25.994Z,102212.59
2023-03-03T23:59:52.867Z,102215.56
